CMA CGM Musca — 2CAC8 — position and weather

sailwx.info

Track history (hours):
 
Tides and Currents Weather Stations Pressure Air Temp Water Temp Dewpoint Dewpoint Depression Visibility Wind Speed Wind Dir Waves Ship Positions

CMA CGM Musca

Last reported at 2016-May-01 00:10 UTC. Time now 2016-May-03 14:20 UTC.
Position N 22°34' E 114°16'.

Length 347 m; draft 13.7 m.

Type: Ship (hazmat cat A). MMSI: 235070914.

Date/timePositionNaut miles runAvg speedWind from/ knotsBaromVisibWave heightAir tempDewpointWater temp
2016-May-01 00:10N 22°34' E 114°16'0 0.0
2016-Apr-30 17:31N 22°34' E 114°16'34 2.9
2016-Apr-30 05:33N 22°11' E 113°49'28 1.4
2016-Apr-29 09:15N 22°38' E 113°42'1112.5
2016-Apr-29 08:22N 22°27' E 113°45'1214.7
2016-Apr-29 07:33N 22°16' E 113°49'24117.0
2016-Apr-28 17:23N 23°30' E 117°57'3820.7
2016-Apr-28 15:32N 23°55' E 118°29'4620.7
2016-Apr-28 13:17N 24°25' E 119°08'40316.9
2016-Apr-27 13:29N 30°36' E 122°05'0 0.0
2016-Apr-27 04:33N 30°37' E 122°05'0 0.0
2016-Apr-27 02:19N 30°37' E 122°05'2 3.1
2016-Apr-27 01:31N 30°35' E 122°07'1210.0
2016-Apr-27 00:21N 30°33' E 122°20'10 0.9
2016-Apr-26 13:32N 30°28' E 122°31'1413.6
2016-Apr-26 12:33N 30°27' E 122°46'3611.2
2016-Apr-26 09:18N 29°51' E 122°50'1615.7
2016-Apr-26 08:16N 29°40' E 122°37'1014.5
2016-Apr-26 07:33N 29°42' E 122°25'1212.2
2016-Apr-26 06:33N 29°49' E 122°14'1312.8
2016-Apr-26 05:34N 29°56' E 122°01'4 0.2
2016-Apr-25 05:33N 29°57' E 121°57'1212.1
2016-Apr-25 04:33N 29°55' E 122°10'1312.8
2016-Apr-25 03:32N 29°45' E 122°20'9 9.0
2016-Apr-25 02:33N 29°45' E 122°31'1615.0
2016-Apr-25 01:30N 29°51' E 122°47'11215.5
2016-Apr-24 18:17N 31°39' E 123°21'1214.9
2016-Apr-24 17:30N 31°50' E 123°21'1514.7
2016-Apr-24 16:28N 32°06' E 123°21'2015.0
2016-Apr-24 15:06N 32°26' E 123°22'1015.8
2016-Apr-24 14:29N 32°36' E 123°22'1814.4
2016-Apr-24 13:13N 32°51' E 123°09'1217.0
2016-Apr-24 12:32N 33°02' E 123°07'  
Track history (hours):
 
Tides and Currents Weather Stations Pressure Air Temp Water Temp Dewpoint Dewpoint Depression Visibility Wind Speed Wind Dir Waves Ship Positions

CMA CGM Musca

Last reported at 2016-May-01 00:10 UTC. Time now 2016-May-03 14:20 UTC.
Position N 22°34' E 114°16'.

Length 347 m; draft 13.7 m.

Type: Ship (hazmat cat A). MMSI: 235070914.

Date/timePositionNaut miles runAvg speedWind from/ knotsBaromVisibWave heightAir tempDewpointWater temp
2016-May-01 00:10N 22°34' E 114°16'0 0.0
2016-Apr-30 17:31N 22°34' E 114°16'34 2.9
2016-Apr-30 05:33N 22°11' E 113°49'28 1.4
2016-Apr-29 09:15N 22°38' E 113°42'1112.5
2016-Apr-29 08:22N 22°27' E 113°45'1214.7
2016-Apr-29 07:33N 22°16' E 113°49'24117.0
2016-Apr-28 17:23N 23°30' E 117°57'3820.7
2016-Apr-28 15:32N 23°55' E 118°29'4620.7
2016-Apr-28 13:17N 24°25' E 119°08'40316.9
2016-Apr-27 13:29N 30°36' E 122°05'0 0.0
2016-Apr-27 04:33N 30°37' E 122°05'0 0.0
2016-Apr-27 02:19N 30°37' E 122°05'2 3.1
2016-Apr-27 01:31N 30°35' E 122°07'1210.0
2016-Apr-27 00:21N 30°33' E 122°20'10 0.9
2016-Apr-26 13:32N 30°28' E 122°31'1413.6
2016-Apr-26 12:33N 30°27' E 122°46'3611.2
2016-Apr-26 09:18N 29°51' E 122°50'1615.7
2016-Apr-26 08:16N 29°40' E 122°37'1014.5
2016-Apr-26 07:33N 29°42' E 122°25'1212.2
2016-Apr-26 06:33N 29°49' E 122°14'1312.8
2016-Apr-26 05:34N 29°56' E 122°01'4 0.2
2016-Apr-25 05:33N 29°57' E 121°57'1212.1
2016-Apr-25 04:33N 29°55' E 122°10'1312.8
2016-Apr-25 03:32N 29°45' E 122°20'9 9.0
2016-Apr-25 02:33N 29°45' E 122°31'1615.0
2016-Apr-25 01:30N 29°51' E 122°47'11215.5
2016-Apr-24 18:17N 31°39' E 123°21'1214.9
2016-Apr-24 17:30N 31°50' E 123°21'1514.7
2016-Apr-24 16:28N 32°06' E 123°21'2015.0
2016-Apr-24 15:06N 32°26' E 123°22'1015.8
2016-Apr-24 14:29N 32°36' E 123°22'1814.4
2016-Apr-24 13:13N 32°51' E 123°09'1217.0
2016-Apr-24 12:32N 33°02' E 123°07'  

Dump ship's entire track history